Seastreak Highlands — WDE4031 — position and weather

sailwx.info

Track history (hours):
 
Tides and Currents Weather Stations Pressure Air Temp Water Temp Dewpoint Dewpoint Depression Visibility Wind Speed Wind Dir Waves Ship Positions

Seastreak Highlands

Owner: Seastreak llc, atlantic highlands, NJ. More information available from US FCC via Universal Licensing System and Coast Guard Vessel Documentation Center.

Last reported at 2017-Jan-17 20:25 UTC. Time now 2017-Jan-17 21:22 UTC.
Position N 40°30' W 074°02'.

Length 44 m.

Type: High speed craft. MMSI: 367347670.

Date/timePositionNaut miles runAvg speedWind from/ knotsBaromVisibWave heightAir tempDewpointWater temp
2017-Jan-17 20:25N 40°30' W 074°02'1517.5
2017-Jan-17 19:33N 40°45' W 073°58'0 0.0
2017-Jan-17 18:33N 40°45' W 073°58'0 0.0
2017-Jan-17 17:33N 40°45' W 073°58'0 0.0
2017-Jan-17 16:33N 40°45' W 073°58'0 0.0
2017-Jan-17 15:33N 40°45' W 073°58'3 2.9
2017-Jan-17 14:34N 40°42' W 074°00'1212.0
2017-Jan-17 13:33N 40°30' W 074°02'10 9.7
2017-Jan-17 12:34N 40°40' W 074°02'1514.8
2017-Jan-17 11:32N 40°25' W 073°60'0 0.0
2017-Jan-17 01:10N 40°25' W 073°60'2 3.0
2017-Jan-17 00:33N 40°25' W 074°02'1818.4
2017-Jan-16 23:33N 40°43' W 073°58'1818.1
2017-Jan-16 22:33N 40°25' W 074°02'1717.2
2017-Jan-16 21:34N 40°42' W 074°00'3 3.0
2017-Jan-16 20:33N 40°45' W 073°58'0 0.0
2017-Jan-16 19:33N 40°45' W 073°58'0 0.0
2017-Jan-16 18:33N 40°45' W 073°58'0 0.0
2017-Jan-16 17:33N 40°45' W 073°58'0 0.0
2017-Jan-16 16:33N 40°45' W 073°58'0 0.0
2017-Jan-16 15:33N 40°45' W 073°58'3 3.0
2017-Jan-16 14:34N 40°42' W 074°00'1211.2
2017-Jan-16 13:32N 40°31' W 074°02'1111.3
2017-Jan-16 12:34N 40°42' W 074°01'1713.4
2017-Jan-16 11:17N 40°25' W 073°60'2 2.5
2017-Jan-16 10:32N 40°25' W 074°02'0 0.0
2017-Jan-14 17:11N 40°25' W 074°02'0 0.0
2017-Jan-14 16:33N 40°25' W 074°02'0 0.0
2017-Jan-14 15:33N 40°25' W 074°02'0 0.0
2017-Jan-14 14:34N 40°25' W 074°02'3 0.2
2017-Jan-13 23:33N 40°28' W 074°01'1312.9
2017-Jan-13 22:34N 40°41' W 074°01'4 3.9
2017-Jan-13 21:33N 40°38' W 074°03'5 3.7
2017-Jan-13 20:19N 40°33' W 074°02'1215.7
2017-Jan-13 19:33N 40°45' W 073°58'0 0.0
2017-Jan-13 18:33N 40°45' W 073°58'0 0.0
2017-Jan-13 17:33N 40°45' W 073°58'0 0.0
2017-Jan-13 16:33N 40°45' W 073°58'0 0.0
2017-Jan-13 15:34N 40°45' W 073°58'3 3.0
2017-Jan-13 14:34N 40°42' W 074°00'10 8.8
2017-Jan-13 13:28N 40°33' W 074°02'8 9.2
2017-Jan-13 12:34N 40°41' W 074°01'1611.0
2017-Jan-13 11:04N 40°25' W 073°60'0 0.0
2017-Jan-13 10:31N 40°25' W 073°60'0 0.0
2017-Jan-13 02:17N 40°25' W 073°60'0 0.1
2017-Jan-13 01:33N 40°25' W 073°60'1919.2
2017-Jan-13 00:34N 40°44' W 073°58'1717.2
2017-Jan-12 23:33N 40°26' W 074°01'1515.3
2017-Jan-12 22:34N 40°41' W 074°01'1 1.3
2017-Jan-12 21:34N 40°42' W 073°59'9 7.1
2017-Jan-12 20:18N 40°34' W 074°02'1115.0
2017-Jan-12 19:33N 40°45' W 073°58'0 0.0
2017-Jan-12 18:33N 40°45' W 073°58'0 0.0
2017-Jan-12 17:33N 40°45' W 073°58'0 0.0
2017-Jan-12 16:33N 40°45' W 073°58'0 0.0
2017-Jan-12 15:33N 40°45' W 073°58'3 2.9
2017-Jan-12 14:34N 40°42' W 074°00'1212.0
2017-Jan-12 13:32N 40°30' W 074°02'1111.0
2017-Jan-12 12:34N 40°41' W 074°01'16 1.4
2017-Jan-12 01:33N 40°25' W 074°00'1918.9
2017-Jan-12 00:34N 40°44' W 073°58'1916.9
2017-Jan-11 23:26N 40°25' W 073°60'1719.8
2017-Jan-11 22:34N 40°42' W 074°01'1 0.8
2017-Jan-11 21:34N 40°41' W 074°01'9 7.5
2017-Jan-11 20:24N 40°32' W 074°02'1315.0
2017-Jan-11 19:33N 40°45' W 073°58'0 0.0
2017-Jan-11 18:33N 40°45' W 073°58'0 0.0
2017-Jan-11 17:33N 40°45' W 073°58'0 0.0
2017-Jan-11 16:33N 40°45' W 073°58'0 0.0
2017-Jan-11 15:33N 40°45' W 073°58'3 3.1
2017-Jan-11 14:34N 40°42' W 074°00'1010.1
2017-Jan-11 13:33N 40°32' W 074°02'9 8.8
2017-Jan-11 12:34N 40°41' W 074°01'1611.4
2017-Jan-11 11:08N 40°25' W 073°60'1 0.1
2017-Jan-11 01:32N 40°25' W 074°01'1919.2
2017-Jan-11 00:34N 40°44' W 073°58'2017.0
2017-Jan-10 23:25N 40°25' W 073°60'1719.9
2017-Jan-10 22:34N 40°42' W 074°01'1 1.1
2017-Jan-10 21:33N 40°41' W 074°01'1413.8
2017-Jan-10 20:33N 40°27' W 074°01'1818.1
2017-Jan-10 19:33N 40°45' W 073°58'0 0.0
2017-Jan-10 18:33N 40°45' W 073°58'0 0.0
2017-Jan-10 17:33N 40°45' W 073°58'0 0.0
2017-Jan-10 16:33N 40°45' W 073°58'0 0.0
2017-Jan-10 15:33N 40°45' W 073°58'3 3.1
2017-Jan-10 14:33N 40°42' W 074°00'8 7.2
2017-Jan-10 13:27N 40°34' W 074°02'6 6.9
2017-Jan-10 12:33N 40°40' W 074°01'16 1.4
2017-Jan-10 01:33N 40°25' W 073°60'1919.3
2017-Jan-10 00:34N 40°44' W 073°58'1917.2
2017-Jan-09 23:26N 40°25' W 073°60'1719.3
2017-Jan-09 22:34N 40°42' W 074°01'2 1.6
2017-Jan-09 21:34N 40°40' W 074°01'1211.2
2017-Jan-09 20:30N 40°28' W 074°01'1717.9
2017-Jan-09 19:33N 40°45' W 073°58'0 0.0
2017-Jan-09 18:33N 40°45' W 073°58'0 0.0
2017-Jan-09 17:33N 40°45' W 073°58'0 0.0
2017-Jan-09 15:33N 40°45' W 073°58'3 3.1
2017-Jan-09 14:34N 40°42' W 074°00'8 7.7
2017-Jan-09 13:29N 40°34' W 074°02'6 6.1
2017-Jan-09 12:34N 40°39' W 074°02'  
Track history (hours):
 
Tides and Currents Weather Stations Pressure Air Temp Water Temp Dewpoint Dewpoint Depression Visibility Wind Speed Wind Dir Waves Ship Positions

Seastreak Highlands

Owner: Seastreak llc, atlantic highlands, NJ. More information available from US FCC via Universal Licensing System and Coast Guard Vessel Documentation Center.

Last reported at 2017-Jan-17 20:25 UTC. Time now 2017-Jan-17 21:22 UTC.
Position N 40°30' W 074°02'.

Length 44 m.

Type: High speed craft. MMSI: 367347670.

Date/timePositionNaut miles runAvg speedWind from/ knotsBaromVisibWave heightAir tempDewpointWater temp
2017-Jan-17 20:25N 40°30' W 074°02'1517.5
2017-Jan-17 19:33N 40°45' W 073°58'0 0.0
2017-Jan-17 18:33N 40°45' W 073°58'0 0.0
2017-Jan-17 17:33N 40°45' W 073°58'0 0.0
2017-Jan-17 16:33N 40°45' W 073°58'0 0.0
2017-Jan-17 15:33N 40°45' W 073°58'3 2.9
2017-Jan-17 14:34N 40°42' W 074°00'1212.0
2017-Jan-17 13:33N 40°30' W 074°02'10 9.7
2017-Jan-17 12:34N 40°40' W 074°02'1514.8
2017-Jan-17 11:32N 40°25' W 073°60'0 0.0
2017-Jan-17 01:10N 40°25' W 073°60'2 3.0
2017-Jan-17 00:33N 40°25' W 074°02'1818.4
2017-Jan-16 23:33N 40°43' W 073°58'1818.1
2017-Jan-16 22:33N 40°25' W 074°02'1717.2
2017-Jan-16 21:34N 40°42' W 074°00'3 3.0
2017-Jan-16 20:33N 40°45' W 073°58'0 0.0
2017-Jan-16 19:33N 40°45' W 073°58'0 0.0
2017-Jan-16 18:33N 40°45' W 073°58'0 0.0
2017-Jan-16 17:33N 40°45' W 073°58'0 0.0
2017-Jan-16 16:33N 40°45' W 073°58'0 0.0
2017-Jan-16 15:33N 40°45' W 073°58'3 3.0
2017-Jan-16 14:34N 40°42' W 074°00'1211.2
2017-Jan-16 13:32N 40°31' W 074°02'1111.3
2017-Jan-16 12:34N 40°42' W 074°01'1713.4
2017-Jan-16 11:17N 40°25' W 073°60'2 2.5
2017-Jan-16 10:32N 40°25' W 074°02'0 0.0
2017-Jan-14 17:11N 40°25' W 074°02'0 0.0
2017-Jan-14 16:33N 40°25' W 074°02'0 0.0
2017-Jan-14 15:33N 40°25' W 074°02'0 0.0
2017-Jan-14 14:34N 40°25' W 074°02'3 0.2
2017-Jan-13 23:33N 40°28' W 074°01'1312.9
2017-Jan-13 22:34N 40°41' W 074°01'4 3.9
2017-Jan-13 21:33N 40°38' W 074°03'5 3.7
2017-Jan-13 20:19N 40°33' W 074°02'1215.7
2017-Jan-13 19:33N 40°45' W 073°58'0 0.0
2017-Jan-13 18:33N 40°45' W 073°58'0 0.0
2017-Jan-13 17:33N 40°45' W 073°58'0 0.0
2017-Jan-13 16:33N 40°45' W 073°58'0 0.0
2017-Jan-13 15:34N 40°45' W 073°58'3 3.0
2017-Jan-13 14:34N 40°42' W 074°00'10 8.8
2017-Jan-13 13:28N 40°33' W 074°02'8 9.2
2017-Jan-13 12:34N 40°41' W 074°01'1611.0
2017-Jan-13 11:04N 40°25' W 073°60'0 0.0
2017-Jan-13 10:31N 40°25' W 073°60'0 0.0
2017-Jan-13 02:17N 40°25' W 073°60'0 0.1
2017-Jan-13 01:33N 40°25' W 073°60'1919.2
2017-Jan-13 00:34N 40°44' W 073°58'1717.2
2017-Jan-12 23:33N 40°26' W 074°01'1515.3
2017-Jan-12 22:34N 40°41' W 074°01'1 1.3
2017-Jan-12 21:34N 40°42' W 073°59'9 7.1
2017-Jan-12 20:18N 40°34' W 074°02'1115.0
2017-Jan-12 19:33N 40°45' W 073°58'0 0.0
2017-Jan-12 18:33N 40°45' W 073°58'0 0.0
2017-Jan-12 17:33N 40°45' W 073°58'0 0.0
2017-Jan-12 16:33N 40°45' W 073°58'0 0.0
2017-Jan-12 15:33N 40°45' W 073°58'3 2.9
2017-Jan-12 14:34N 40°42' W 074°00'1212.0
2017-Jan-12 13:32N 40°30' W 074°02'1111.0
2017-Jan-12 12:34N 40°41' W 074°01'16 1.4
2017-Jan-12 01:33N 40°25' W 074°00'1918.9
2017-Jan-12 00:34N 40°44' W 073°58'1916.9
2017-Jan-11 23:26N 40°25' W 073°60'1719.8
2017-Jan-11 22:34N 40°42' W 074°01'1 0.8
2017-Jan-11 21:34N 40°41' W 074°01'9 7.5
2017-Jan-11 20:24N 40°32' W 074°02'1315.0
2017-Jan-11 19:33N 40°45' W 073°58'0 0.0
2017-Jan-11 18:33N 40°45' W 073°58'0 0.0
2017-Jan-11 17:33N 40°45' W 073°58'0 0.0
2017-Jan-11 16:33N 40°45' W 073°58'0 0.0
2017-Jan-11 15:33N 40°45' W 073°58'3 3.1
2017-Jan-11 14:34N 40°42' W 074°00'1010.1
2017-Jan-11 13:33N 40°32' W 074°02'9 8.8
2017-Jan-11 12:34N 40°41' W 074°01'1611.4
2017-Jan-11 11:08N 40°25' W 073°60'1 0.1
2017-Jan-11 01:32N 40°25' W 074°01'1919.2
2017-Jan-11 00:34N 40°44' W 073°58'2017.0
2017-Jan-10 23:25N 40°25' W 073°60'1719.9
2017-Jan-10 22:34N 40°42' W 074°01'1 1.1
2017-Jan-10 21:33N 40°41' W 074°01'1413.8
2017-Jan-10 20:33N 40°27' W 074°01'1818.1
2017-Jan-10 19:33N 40°45' W 073°58'0 0.0
2017-Jan-10 18:33N 40°45' W 073°58'0 0.0
2017-Jan-10 17:33N 40°45' W 073°58'0 0.0
2017-Jan-10 16:33N 40°45' W 073°58'0 0.0
2017-Jan-10 15:33N 40°45' W 073°58'3 3.1
2017-Jan-10 14:33N 40°42' W 074°00'8 7.2
2017-Jan-10 13:27N 40°34' W 074°02'6 6.9
2017-Jan-10 12:33N 40°40' W 074°01'16 1.4
2017-Jan-10 01:33N 40°25' W 073°60'1919.3
2017-Jan-10 00:34N 40°44' W 073°58'1917.2
2017-Jan-09 23:26N 40°25' W 073°60'1719.3
2017-Jan-09 22:34N 40°42' W 074°01'2 1.6
2017-Jan-09 21:34N 40°40' W 074°01'1211.2
2017-Jan-09 20:30N 40°28' W 074°01'1717.9
2017-Jan-09 19:33N 40°45' W 073°58'0 0.0
2017-Jan-09 18:33N 40°45' W 073°58'0 0.0
2017-Jan-09 17:33N 40°45' W 073°58'0 0.0
2017-Jan-09 15:33N 40°45' W 073°58'3 3.1
2017-Jan-09 14:34N 40°42' W 074°00'8 7.7
2017-Jan-09 13:29N 40°34' W 074°02'6 6.1
2017-Jan-09 12:34N 40°39' W 074°02'  

Dump ship's entire track history